sensor_id;sensor_type;location;lat;lon;timestamp;P1;durP1;ratioP1;P2;durP2;ratioP2
43803;SDS011;29430;52.924;-2.388;2023-04-25T00:01:34;3.08;;;0.65;;
43803;SDS011;29430;52.924;-2.388;2023-04-25T00:06:27;2.22;;;0.30;;
43803;SDS011;29430;52.924;-2.388;2023-04-25T00:11:19;4.07;;;0.70;;
43803;SDS011;29430;52.924;-2.388;2023-04-25T00:16:10;9.48;;;0.65;;
43803;SDS011;29430;52.924;-2.388;2023-04-25T00:21:05;4.25;;;0.45;;
43803;SDS011;29430;52.924;-2.388;2023-04-25T00:25:57;4.75;;;0.40;;
43803;SDS011;29430;52.924;-2.388;2023-04-25T00:30:49;4.43;;;0.40;;
43803;SDS011;29430;52.924;-2.388;2023-04-25T00:35:41;3.33;;;0.30;;
43803;SDS011;29430;52.924;-2.388;2023-04-25T00:40:33;2.13;;;0.38;;
43803;SDS011;29430;52.924;-2.388;2023-04-25T00:45:27;3.15;;;0.30;;
43803;SDS011;29430;52.924;-2.388;2023-04-25T00:50:20;5.10;;;0.38;;
43803;SDS011;29430;52.924;-2.388;2023-04-25T00:55:12;2.42;;;0.20;;
43803;SDS011;29430;52.924;-2.388;2023-04-25T01:00:05;1.75;;;0.20;;
43803;SDS011;29430;52.924;-2.388;2023-04-25T01:04:57;4.43;;;0.40;;
43803;SDS011;29430;52.924;-2.388;2023-04-25T01:09:51;3.90;;;0.30;;
43803;SDS011;29430;52.924;-2.388;2023-04-25T01:14:43;4.82;;;0.40;;
43803;SDS011;29430;52.924;-2.388;2023-04-25T01:19:35;1.75;;;0.30;;
43803;SDS011;29430;52.924;-2.388;2023-04-25T01:24:26;1.38;;;0.20;;
43803;SDS011;29430;52.924;-2.388;2023-04-25T01:29:19;1.60;;;0.28;;
43803;SDS011;29430;52.924;-2.388;2023-04-25T01:34:12;2.78;;;0.45;;
43803;SDS011;29430;52.924;-2.388;2023-04-25T01:39:04;2.10;;;0.28;;
43803;SDS011;29430;52.924;-2.388;2023-04-25T01:43:56;2.70;;;0.30;;
43803;SDS011;29430;52.924;-2.388;2023-04-25T01:48:49;2.67;;;0.20;;
43803;SDS011;29430;52.924;-2.388;2023-04-25T01:53:41;4.20;;;0.32;;
43803;SDS011;29430;52.924;-2.388;2023-04-25T01:58:34;3.63;;;0.28;;
43803;SDS011;29430;52.924;-2.388;2023-04-25T02:03:25;1.73;;;0.40;;
43803;SDS011;29430;52.924;-2.388;2023-04-25T02:08:17;3.28;;;0.30;;
43803;SDS011;29430;52.924;-2.388;2023-04-25T02:13:10;1.73;;;0.30;;
43803;SDS011;29430;52.924;-2.388;2023-04-25T02:18:01;5.28;;;0.30;;
43803;SDS011;29430;52.924;-2.388;2023-04-25T02:22:53;1.00;;;0.10;;
43803;SDS011;29430;52.924;-2.388;2023-04-25T02:27:46;3.28;;;0.30;;
43803;SDS011;29430;52.924;-2.388;2023-04-25T02:32:38;2.85;;;0.40;;
43803;SDS011;29430;52.924;-2.388;2023-04-25T02:37:31;2.22;;;0.25;;
43803;SDS011;29430;52.924;-2.388;2023-04-25T02:42:27;2.45;;;0.40;;
43803;SDS011;29430;52.924;-2.388;2023-04-25T02:47:19;3.10;;;0.68;;
43803;SDS011;29430;52.924;-2.388;2023-04-25T02:52:11;5.22;;;0.38;;
43803;SDS011;29430;52.924;-2.388;2023-04-25T02:57:03;2.03;;;0.25;;
43803;SDS011;29430;52.924;-2.388;2023-04-25T03:01:54;2.58;;;0.20;;
43803;SDS011;29430;52.924;-2.388;2023-04-25T03:06:46;6.28;;;0.25;;
43803;SDS011;29430;52.924;-2.388;2023-04-25T03:11:38;2.95;;;0.30;;
43803;SDS011;29430;52.924;-2.388;2023-04-25T03:16:30;2.47;;;0.20;;
43803;SDS011;29430;52.924;-2.388;2023-04-25T03:21:22;1.58;;;0.20;;
43803;SDS011;29430;52.924;-2.388;2023-04-25T03:26:14;2.85;;;0.30;;
43803;SDS011;29430;52.924;-2.388;2023-04-25T03:31:06;3.80;;;0.30;;
43803;SDS011;29430;52.924;-2.388;2023-04-25T03:35:58;6.15;;;0.35;;
43803;SDS011;29430;52.924;-2.388;2023-04-25T03:40:50;1.85;;;0.50;;
43803;SDS011;29430;52.924;-2.388;2023-04-25T03:45:42;3.72;;;0.30;;
43803;SDS011;29430;52.924;-2.388;2023-04-25T03:50:34;4.88;;;0.93;;
43803;SDS011;29430;52.924;-2.388;2023-04-25T03:55:26;13.05;;;2.67;;
43803;SDS011;29430;52.924;-2.388;2023-04-25T04:00:18;4.32;;;0.30;;
43803;SDS011;29430;52.924;-2.388;2023-04-25T04:05:09;3.55;;;0.40;;
43803;SDS011;29430;52.924;-2.388;2023-04-25T04:10:01;2.70;;;0.30;;
43803;SDS011;29430;52.924;-2.388;2023-04-25T04:14:53;4.63;;;0.60;;
43803;SDS011;29430;52.924;-2.388;2023-04-25T04:19:44;2.83;;;0.30;;
43803;SDS011;29430;52.924;-2.388;2023-04-25T04:24:36;6.88;;;0.50;;
43803;SDS011;29430;52.924;-2.388;2023-04-25T04:29:28;4.32;;;0.32;;
43803;SDS011;29430;52.924;-2.388;2023-04-25T04:34:19;2.40;;;0.40;;
43803;SDS011;29430;52.924;-2.388;2023-04-25T04:39:11;5.38;;;1.05;;
43803;SDS011;29430;52.924;-2.388;2023-04-25T04:44:04;2.35;;;0.45;;
43803;SDS011;29430;52.924;-2.388;2023-04-25T04:48:57;4.63;;;0.32;;
43803;SDS011;29430;52.924;-2.388;2023-04-25T04:53:49;2.47;;;0.40;;
43803;SDS011;29430;52.924;-2.388;2023-04-25T04:58:41;4.40;;;0.30;;
43803;SDS011;29430;52.924;-2.388;2023-04-25T05:03:33;4.55;;;0.40;;
43803;SDS011;29430;52.924;-2.388;2023-04-25T05:08:25;2.15;;;0.40;;
43803;SDS011;29430;52.924;-2.388;2023-04-25T05:13:17;6.88;;;0.50;;
43803;SDS011;29430;52.924;-2.388;2023-04-25T05:18:09;4.32;;;0.63;;
43803;SDS011;29430;52.924;-2.388;2023-04-25T05:23:00;3.47;;;0.40;;
43803;SDS011;29430;52.924;-2.388;2023-04-25T05:27:52;5.63;;;0.43;;
43803;SDS011;29430;52.924;-2.388;2023-04-25T05:32:44;4.93;;;0.40;;
43803;SDS011;29430;52.924;-2.388;2023-04-25T05:37:36;4.70;;;0.60;;
43803;SDS011;29430;52.924;-2.388;2023-04-25T05:42:28;4.43;;;0.85;;
43803;SDS011;29430;52.924;-2.388;2023-04-25T05:47:19;4.40;;;0.70;;
43803;SDS011;29430;52.924;-2.388;2023-04-25T05:52:11;5.53;;;0.60;;
43803;SDS011;29430;52.924;-2.388;2023-04-25T05:57:03;7.90;;;0.80;;
43803;SDS011;29430;52.924;-2.388;2023-04-25T06:01:54;8.52;;;0.85;;
43803;SDS011;29430;52.924;-2.388;2023-04-25T06:06:46;5.65;;;0.60;;
43803;SDS011;29430;52.924;-2.388;2023-04-25T06:11:38;6.15;;;0.70;;
43803;SDS011;29430;52.924;-2.388;2023-04-25T06:16:29;5.05;;;0.60;;
43803;SDS011;29430;52.924;-2.388;2023-04-25T06:21:21;4.85;;;1.02;;
43803;SDS011;29430;52.924;-2.388;2023-04-25T06:26:12;4.97;;;0.50;;
43803;SDS011;29430;52.924;-2.388;2023-04-25T06:31:04;4.68;;;0.70;;
43803;SDS011;29430;52.924;-2.388;2023-04-25T06:35:56;11.05;;;1.25;;
43803;SDS011;29430;52.924;-2.388;2023-04-25T06:40:47;3.50;;;0.60;;
43803;SDS011;29430;52.924;-2.388;2023-04-25T06:45:39;3.90;;;0.40;;
43803;SDS011;29430;52.924;-2.388;2023-04-25T06:50:30;4.70;;;0.43;;
43803;SDS011;29430;52.924;-2.388;2023-04-25T06:55:22;2.03;;;0.40;;
43803;SDS011;29430;52.924;-2.388;2023-04-25T07:00:14;5.15;;;0.50;;
43803;SDS011;29430;52.924;-2.388;2023-04-25T07:05:06;3.88;;;0.40;;
43803;SDS011;29430;52.924;-2.388;2023-04-25T07:09:58;5.95;;;0.60;;
43803;SDS011;29430;52.924;-2.388;2023-04-25T07:14:49;3.90;;;0.45;;
43803;SDS011;29430;52.924;-2.388;2023-04-25T07:19:41;3.40;;;0.40;;
43803;SDS011;29430;52.924;-2.388;2023-04-25T07:24:33;3.45;;;0.50;;
43803;SDS011;29430;52.924;-2.388;2023-04-25T07:29:25;3.50;;;0.30;;
43803;SDS011;29430;52.924;-2.388;2023-04-25T07:34:17;2.35;;;0.40;;
43803;SDS011;29430;52.924;-2.388;2023-04-25T07:39:08;5.00;;;0.55;;
43803;SDS011;29430;52.924;-2.388;2023-04-25T07:44:03;3.03;;;0.40;;
43803;SDS011;29430;52.924;-2.388;2023-04-25T07:48:54;4.40;;;0.40;;
43803;SDS011;29430;52.924;-2.388;2023-04-25T07:53:46;4.75;;;0.45;;
43803;SDS011;29430;52.924;-2.388;2023-04-25T07:58:40;4.57;;;0.40;;
43803;SDS011;29430;52.924;-2.388;2023-04-25T08:03:32;2.70;;;0.40;;
43803;SDS011;29430;52.924;-2.388;2023-04-25T08:08:24;4.55;;;0.30;;
43803;SDS011;29430;52.924;-2.388;2023-04-25T08:13:16;2.30;;;0.40;;
43803;SDS011;29430;52.924;-2.388;2023-04-25T08:18:07;1.95;;;0.63;;
43803;SDS011;29430;52.924;-2.388;2023-04-25T08:22:59;3.35;;;0.40;;
43803;SDS011;29430;52.924;-2.388;2023-04-25T08:27:51;3.85;;;0.40;;
43803;SDS011;29430;52.924;-2.388;2023-04-25T08:32:43;2.35;;;0.30;;
43803;SDS011;29430;52.924;-2.388;2023-04-25T08:37:35;3.45;;;0.40;;
43803;SDS011;29430;52.924;-2.388;2023-04-25T08:42:27;2.47;;;0.40;;
43803;SDS011;29430;52.924;-2.388;2023-04-25T08:47:21;3.08;;;0.63;;
43803;SDS011;29430;52.924;-2.388;2023-04-25T08:52:13;1.27;;;0.40;;
43803;SDS011;29430;52.924;-2.388;2023-04-25T08:57:06;3.00;;;0.40;;
43803;SDS011;29430;52.924;-2.388;2023-04-25T09:01:58;4.13;;;0.50;;
43803;SDS011;29430;52.924;-2.388;2023-04-25T09:06:50;3.40;;;0.32;;
43803;SDS011;29430;52.924;-2.388;2023-04-25T09:11:42;2.70;;;0.30;;
43803;SDS011;29430;52.924;-2.388;2023-04-25T09:16:33;3.17;;;0.30;;
43803;SDS011;29430;52.924;-2.388;2023-04-25T09:21:28;4.05;;;0.40;;
43803;SDS011;29430;52.924;-2.388;2023-04-25T09:26:22;1.42;;;0.38;;
43803;SDS011;29430;52.924;-2.388;2023-04-25T09:31:21;2.45;;;0.35;;
43803;SDS011;29430;52.924;-2.388;2023-04-25T09:36:15;1.80;;;0.40;;
43803;SDS011;29430;52.924;-2.388;2023-04-25T09:41:07;1.85;;;0.40;;
43803;SDS011;29430;52.924;-2.388;2023-04-25T09:46:00;3.53;;;0.50;;
43803;SDS011;29430;52.924;-2.388;2023-04-25T09:51:08;1.42;;;0.40;;
43803;SDS011;29430;52.924;-2.388;2023-04-25T09:56:02;3.45;;;0.45;;
43803;SDS011;29430;52.924;-2.388;2023-04-25T10:01:04;1.55;;;0.40;;
43803;SDS011;29430;52.924;-2.388;2023-04-25T10:06:01;2.30;;;0.47;;
43803;SDS011;29430;52.924;-2.388;2023-04-25T10:10:59;1.92;;;0.50;;
43803;SDS011;29430;52.924;-2.388;2023-04-25T10:15:52;2.78;;;0.52;;
43803;SDS011;29430;52.924;-2.388;2023-04-25T10:20:45;3.88;;;0.60;;
43803;SDS011;29430;52.924;-2.388;2023-04-25T10:25:37;3.10;;;0.40;;
43803;SDS011;29430;52.924;-2.388;2023-04-25T10:30:29;3.78;;;0.50;;
43803;SDS011;29430;52.924;-2.388;2023-04-25T10:35:28;3.25;;;0.55;;
43803;SDS011;29430;52.924;-2.388;2023-04-25T10:40:24;4.68;;;0.40;;
43803;SDS011;29430;52.924;-2.388;2023-04-25T10:45:16;1.42;;;0.40;;
43803;SDS011;29430;52.924;-2.388;2023-04-25T10:50:08;1.83;;;0.40;;
43803;SDS011;29430;52.924;-2.388;2023-04-25T10:55:04;2.80;;;0.50;;
43803;SDS011;29430;52.924;-2.388;2023-04-25T11:00:38;3.45;;;0.40;;
43803;SDS011;29430;52.924;-2.388;2023-04-25T11:10:13;1.98;;;0.32;;
43803;SDS011;29430;52.924;-2.388;2023-04-25T11:15:05;3.53;;;0.40;;
43803;SDS011;29430;52.924;-2.388;2023-04-25T11:19:59;2.38;;;0.50;;
43803;SDS011;29430;52.924;-2.388;2023-04-25T11:24:51;3.17;;;0.40;;
43803;SDS011;29430;52.924;-2.388;2023-04-25T11:29:42;1.60;;;0.30;;
43803;SDS011;29430;52.924;-2.388;2023-04-25T11:34:34;4.22;;;0.35;;
43803;SDS011;29430;52.924;-2.388;2023-04-25T11:39:26;2.08;;;0.40;;
43803;SDS011;29430;52.924;-2.388;2023-04-25T11:44:19;3.88;;;0.47;;
43803;SDS011;29430;52.924;-2.388;2023-04-25T11:49:11;2.38;;;0.40;;
43803;SDS011;29430;52.924;-2.388;2023-04-25T11:54:03;1.92;;;0.47;;
43803;SDS011;29430;52.924;-2.388;2023-04-25T11:58:57;3.38;;;0.40;;
43803;SDS011;29430;52.924;-2.388;2023-04-25T12:03:51;1.38;;;0.45;;
43803;SDS011;29430;52.924;-2.388;2023-04-25T12:09:07;2.45;;;0.40;;
43803;SDS011;29430;52.924;-2.388;2023-04-25T12:14:04;3.33;;;0.47;;
43803;SDS011;29430;52.924;-2.388;2023-04-25T12:18:56;1.65;;;0.40;;
43803;SDS011;29430;52.924;-2.388;2023-04-25T12:23:50;1.40;;;0.40;;
43803;SDS011;29430;52.924;-2.388;2023-04-25T12:28:45;3.00;;;0.60;;
43803;SDS011;29430;52.924;-2.388;2023-04-25T12:33:38;2.83;;;0.47;;
43803;SDS011;29430;52.924;-2.388;2023-04-25T12:38:31;2.67;;;0.50;;
43803;SDS011;29430;52.924;-2.388;2023-04-25T12:43:28;2.95;;;0.50;;
43803;SDS011;29430;52.924;-2.388;2023-04-25T12:48:19;2.55;;;0.50;;
43803;SDS011;29430;52.924;-2.388;2023-04-25T12:53:12;2.10;;;0.70;;
43803;SDS011;29430;52.924;-2.388;2023-04-25T12:58:03;5.07;;;0.75;;
43803;SDS011;29430;52.924;-2.388;2023-04-25T13:02:55;2.33;;;0.70;;
43803;SDS011;29430;52.924;-2.388;2023-04-25T13:07:47;3.58;;;0.80;;
43803;SDS011;29430;52.924;-2.388;2023-04-25T13:12:38;4.50;;;1.00;;
43803;SDS011;29430;52.924;-2.388;2023-04-25T13:17:30;3.28;;;0.70;;
43803;SDS011;29430;52.924;-2.388;2023-04-25T13:22:22;3.25;;;0.70;;
43803;SDS011;29430;52.924;-2.388;2023-04-25T13:27:13;6.30;;;0.70;;
43803;SDS011;29430;52.924;-2.388;2023-04-25T13:32:05;4.10;;;0.98;;
43803;SDS011;29430;52.924;-2.388;2023-04-25T13:36:58;3.58;;;0.80;;
43803;SDS011;29430;52.924;-2.388;2023-04-25T13:41:52;5.10;;;0.90;;
43803;SDS011;29430;52.924;-2.388;2023-04-25T13:46:44;5.60;;;0.60;;
43803;SDS011;29430;52.924;-2.388;2023-04-25T13:51:38;3.83;;;0.70;;
43803;SDS011;29430;52.924;-2.388;2023-04-25T13:56:29;3.05;;;0.70;;
43803;SDS011;29430;52.924;-2.388;2023-04-25T14:01:21;4.85;;;0.98;;
43803;SDS011;29430;52.924;-2.388;2023-04-25T14:06:13;2.40;;;0.70;;
43803;SDS011;29430;52.924;-2.388;2023-04-25T14:11:08;2.67;;;0.70;;
43803;SDS011;29430;52.924;-2.388;2023-04-25T14:15:59;2.10;;;0.68;;
43803;SDS011;29430;52.924;-2.388;2023-04-25T14:20:51;3.53;;;0.70;;
43803;SDS011;29430;52.924;-2.388;2023-04-25T14:25:43;4.57;;;0.80;;
43803;SDS011;29430;52.924;-2.388;2023-04-25T14:30:35;2.67;;;0.80;;
43803;SDS011;29430;52.924;-2.388;2023-04-25T14:35:27;3.33;;;0.93;;
43803;SDS011;29430;52.924;-2.388;2023-04-25T14:40:18;3.22;;;0.88;;
43803;SDS011;29430;52.924;-2.388;2023-04-25T14:45:14;3.10;;;0.88;;
43803;SDS011;29430;52.924;-2.388;2023-04-25T14:50:06;4.38;;;1.00;;
43803;SDS011;29430;52.924;-2.388;2023-04-25T14:54:58;2.67;;;1.05;;
43803;SDS011;29430;52.924;-2.388;2023-04-25T14:59:52;4.28;;;1.13;;
43803;SDS011;29430;52.924;-2.388;2023-04-25T15:04:44;3.38;;;0.80;;
43803;SDS011;29430;52.924;-2.388;2023-04-25T15:09:36;5.85;;;1.00;;
43803;SDS011;29430;52.924;-2.388;2023-04-25T15:14:27;2.47;;;0.88;;
43803;SDS011;29430;52.924;-2.388;2023-04-25T15:19:20;4.72;;;1.38;;
43803;SDS011;29430;52.924;-2.388;2023-04-25T15:24:12;5.82;;;0.90;;
43803;SDS011;29430;52.924;-2.388;2023-04-25T15:29:05;3.05;;;0.88;;
43803;SDS011;29430;52.924;-2.388;2023-04-25T15:33:57;3.10;;;0.77;;
43803;SDS011;29430;52.924;-2.388;2023-04-25T15:38:49;3.55;;;0.90;;
43803;SDS011;29430;52.924;-2.388;2023-04-25T15:43:41;3.03;;;0.90;;
43803;SDS011;29430;52.924;-2.388;2023-04-25T15:48:32;3.45;;;1.02;;
43803;SDS011;29430;52.924;-2.388;2023-04-25T15:53:24;5.28;;;0.93;;
43803;SDS011;29430;52.924;-2.388;2023-04-25T15:58:16;3.72;;;1.00;;
43803;SDS011;29430;52.924;-2.388;2023-04-25T16:03:07;2.20;;;0.82;;
43803;SDS011;29430;52.924;-2.388;2023-04-25T16:08:00;3.58;;;0.85;;
43803;SDS011;29430;52.924;-2.388;2023-04-25T16:12:52;4.78;;;0.77;;
43803;SDS011;29430;52.924;-2.388;2023-04-25T16:17:44;3.97;;;0.70;;
43803;SDS011;29430;52.924;-2.388;2023-04-25T16:22:37;3.03;;;1.13;;
43803;SDS011;29430;52.924;-2.388;2023-04-25T16:27:29;2.10;;;0.73;;
43803;SDS011;29430;52.924;-2.388;2023-04-25T16:32:24;4.43;;;0.98;;
43803;SDS011;29430;52.924;-2.388;2023-04-25T16:37:16;4.68;;;0.80;;
43803;SDS011;29430;52.924;-2.388;2023-04-25T16:42:07;3.10;;;0.77;;
43803;SDS011;29430;52.924;-2.388;2023-04-25T16:46:59;3.92;;;0.80;;
43803;SDS011;29430;52.924;-2.388;2023-04-25T16:51:51;3.45;;;0.90;;
43803;SDS011;29430;52.924;-2.388;2023-04-25T16:56:43;3.25;;;0.80;;
43803;SDS011;29430;52.924;-2.388;2023-04-25T17:01:34;3.72;;;0.85;;
43803;SDS011;29430;52.924;-2.388;2023-04-25T17:06:26;3.80;;;1.20;;
43803;SDS011;29430;52.924;-2.388;2023-04-25T17:11:19;4.60;;;0.93;;
43803;SDS011;29430;52.924;-2.388;2023-04-25T17:16:11;3.55;;;0.80;;
43803;SDS011;29430;52.924;-2.388;2023-04-25T17:21:07;2.35;;;1.00;;
43803;SDS011;29430;52.924;-2.388;2023-04-25T17:25:59;2.67;;;0.70;;
43803;SDS011;29430;52.924;-2.388;2023-04-25T17:30:51;3.40;;;0.88;;
43803;SDS011;29430;52.924;-2.388;2023-04-25T17:35:42;3.88;;;1.10;;
43803;SDS011;29430;52.924;-2.388;2023-04-25T17:40:34;4.90;;;0.90;;
43803;SDS011;29430;52.924;-2.388;2023-04-25T17:45:26;4.50;;;1.05;;
43803;SDS011;29430;52.924;-2.388;2023-04-25T17:50:24;2.33;;;0.60;;
43803;SDS011;29430;52.924;-2.388;2023-04-25T17:55:16;3.33;;;1.15;;
43803;SDS011;29430;52.924;-2.388;2023-04-25T18:00:08;3.25;;;1.23;;
43803;SDS011;29430;52.924;-2.388;2023-04-25T18:05:01;2.65;;;0.90;;
43803;SDS011;29430;52.924;-2.388;2023-04-25T18:10:00;5.32;;;1.00;;
43803;SDS011;29430;52.924;-2.388;2023-04-25T18:14:51;2.88;;;0.70;;
43803;SDS011;29430;52.924;-2.388;2023-04-25T18:19:43;10.45;;;3.20;;
43803;SDS011;29430;52.924;-2.388;2023-04-25T18:24:35;3.22;;;0.95;;
43803;SDS011;29430;52.924;-2.388;2023-04-25T18:29:26;4.57;;;0.70;;
43803;SDS011;29430;52.924;-2.388;2023-04-25T18:34:24;4.47;;;0.80;;
43803;SDS011;29430;52.924;-2.388;2023-04-25T18:39:17;4.47;;;0.77;;
43803;SDS011;29430;52.924;-2.388;2023-04-25T18:44:13;2.92;;;1.00;;
43803;SDS011;29430;52.924;-2.388;2023-04-25T18:49:05;3.38;;;1.10;;
43803;SDS011;29430;52.924;-2.388;2023-04-25T18:53:57;4.10;;;1.30;;
43803;SDS011;29430;52.924;-2.388;2023-04-25T18:58:49;3.65;;;1.00;;
43803;SDS011;29430;52.924;-2.388;2023-04-25T19:03:42;4.30;;;1.50;;
43803;SDS011;29430;52.924;-2.388;2023-04-25T19:08:34;3.08;;;1.10;;
43803;SDS011;29430;52.924;-2.388;2023-04-25T19:13:25;4.43;;;1.17;;
43803;SDS011;29430;52.924;-2.388;2023-04-25T19:18:18;3.38;;;1.02;;
43803;SDS011;29430;52.924;-2.388;2023-04-25T19:23:10;4.10;;;1.17;;
43803;SDS011;29430;52.924;-2.388;2023-04-25T19:28:02;3.85;;;1.10;;
43803;SDS011;29430;52.924;-2.388;2023-04-25T19:32:54;2.97;;;1.00;;
43803;SDS011;29430;52.924;-2.388;2023-04-25T19:37:49;3.10;;;0.63;;
43803;SDS011;29430;52.924;-2.388;2023-04-25T19:42:41;2.85;;;0.70;;
43803;SDS011;29430;52.924;-2.388;2023-04-25T19:47:33;5.25;;;1.00;;
43803;SDS011;29430;52.924;-2.388;2023-04-25T19:52:28;5.80;;;1.50;;
43803;SDS011;29430;52.924;-2.388;2023-04-25T19:57:21;3.63;;;1.38;;
43803;SDS011;29430;52.924;-2.388;2023-04-25T20:02:13;5.78;;;1.95;;
43803;SDS011;29430;52.924;-2.388;2023-04-25T20:07:06;10.52;;;2.42;;
43803;SDS011;29430;52.924;-2.388;2023-04-25T20:11:57;5.35;;;2.15;;
43803;SDS011;29430;52.924;-2.388;2023-04-25T20:16:49;6.65;;;2.63;;
43803;SDS011;29430;52.924;-2.388;2023-04-25T20:21:41;12.23;;;5.43;;
43803;SDS011;29430;52.924;-2.388;2023-04-25T20:26:32;13.43;;;6.03;;
43803;SDS011;29430;52.924;-2.388;2023-04-25T20:31:24;14.60;;;7.28;;
43803;SDS011;29430;52.924;-2.388;2023-04-25T20:36:16;16.02;;;9.00;;
43803;SDS011;29430;52.924;-2.388;2023-04-25T20:41:09;22.77;;;12.05;;
43803;SDS011;29430;52.924;-2.388;2023-04-25T20:46:01;23.33;;;14.18;;
43803;SDS011;29430;52.924;-2.388;2023-04-25T20:50:55;36.80;;;16.70;;
43803;SDS011;29430;52.924;-2.388;2023-04-25T20:55:47;19.20;;;8.55;;
43803;SDS011;29430;52.924;-2.388;2023-04-25T21:00:38;8.50;;;3.08;;
43803;SDS011;29430;52.924;-2.388;2023-04-25T21:05:30;6.68;;;1.40;;
43803;SDS011;29430;52.924;-2.388;2023-04-25T21:10:22;6.40;;;1.42;;
43803;SDS011;29430;52.924;-2.388;2023-04-25T21:15:14;5.45;;;1.77;;
43803;SDS011;29430;52.924;-2.388;2023-04-25T21:20:16;5.25;;;1.90;;
43803;SDS011;29430;52.924;-2.388;2023-04-25T21:25:09;7.03;;;2.67;;
43803;SDS011;29430;52.924;-2.388;2023-04-25T21:30:00;6.82;;;2.83;;
43803;SDS011;29430;52.924;-2.388;2023-04-25T21:34:52;4.43;;;1.85;;
43803;SDS011;29430;52.924;-2.388;2023-04-25T21:39:44;4.28;;;1.27;;
43803;SDS011;29430;52.924;-2.388;2023-04-25T21:44:38;4.75;;;1.45;;
43803;SDS011;29430;52.924;-2.388;2023-04-25T21:49:30;3.72;;;1.00;;
43803;SDS011;29430;52.924;-2.388;2023-04-25T21:54:23;3.38;;;1.02;;
43803;SDS011;29430;52.924;-2.388;2023-04-25T21:59:14;3.58;;;0.93;;
43803;SDS011;29430;52.924;-2.388;2023-04-25T22:04:06;4.07;;;1.30;;
43803;SDS011;29430;52.924;-2.388;2023-04-25T22:08:58;3.22;;;1.23;;
43803;SDS011;29430;52.924;-2.388;2023-04-25T22:13:49;4.07;;;1.58;;
43803;SDS011;29430;52.924;-2.388;2023-04-25T22:18:41;5.78;;;2.03;;
43803;SDS011;29430;52.924;-2.388;2023-04-25T22:23:36;7.88;;;2.20;;
43803;SDS011;29430;52.924;-2.388;2023-04-25T22:28:28;5.13;;;1.27;;
43803;SDS011;29430;52.924;-2.388;2023-04-25T22:33:20;3.75;;;1.20;;
43803;SDS011;29430;52.924;-2.388;2023-04-25T22:38:12;9.02;;;1.50;;
43803;SDS011;29430;52.924;-2.388;2023-04-25T22:43:05;6.38;;;1.77;;
43803;SDS011;29430;52.924;-2.388;2023-04-25T22:47:56;8.43;;;1.67;;
43803;SDS011;29430;52.924;-2.388;2023-04-25T22:52:48;6.53;;;1.92;;
43803;SDS011;29430;52.924;-2.388;2023-04-25T22:57:40;5.63;;;1.50;;
43803;SDS011;29430;52.924;-2.388;2023-04-25T23:02:32;7.40;;;1.80;;
43803;SDS011;29430;52.924;-2.388;2023-04-25T23:07:24;5.43;;;1.17;;
43803;SDS011;29430;52.924;-2.388;2023-04-25T23:12:16;4.95;;;1.40;;
43803;SDS011;29430;52.924;-2.388;2023-04-25T23:17:09;3.25;;;1.08;;
43803;SDS011;29430;52.924;-2.388;2023-04-25T23:22:02;3.58;;;1.33;;
43803;SDS011;29430;52.924;-2.388;2023-04-25T23:26:54;3.80;;;1.33;;
43803;SDS011;29430;52.924;-2.388;2023-04-25T23:31:46;4.28;;;1.10;;
43803;SDS011;29430;52.924;-2.388;2023-04-25T23:36:37;4.65;;;1.13;;
43803;SDS011;29430;52.924;-2.388;2023-04-25T23:41:29;5.30;;;1.33;;
43803;SDS011;29430;52.924;-2.388;2023-04-25T23:46:21;5.80;;;1.33;;
43803;SDS011;29430;52.924;-2.388;2023-04-25T23:51:13;3.38;;;0.82;;
43803;SDS011;29430;52.924;-2.388;2023-04-25T23:56:05;3.63;;;0.98;;
